ADDS METAR Data INFO
IDs: Format: Raw Decoded Include TAF

Data at: 2111 UTC 22 Oct 2017

KTOC 222055Z AUTO 06004KT 10SM SCT055 OVC065 25/18 A3020 RMK AO2 T02510175
KTOC 222035Z AUTO 06003KT 10SM BKN055 OVC065 25/17 A3020 RMK AO2 T02500174
KTOC 222015Z AUTO 10004KT 10SM OVC055 26/17 A3021 RMK AO2 T02550171
KTOC 221955Z AUTO 09003KT 10SM OVC055 26/17 A3021 RMK AO2 T02550170
KTOC 221935Z AUTO 08007KT 10SM BKN055 26/17 A3021 RMK AO2 T02610172
KTOC 221915Z AUTO 06005KT 10SM SCT030 OVC055 25/18 A3023 RMK AO2 T02540177
KTOC 221855Z AUTO 08007KT 10SM SCT030 OVC055 26/18 A3023 RMK AO2 T02560175
KTOC 221835Z AUTO 08005KT 10SM OVC055 25/18 A3024 RMK AO2 T02510175
KTOC 221815Z AUTO 08005KT 10SM SCT028 SCT033 OVC055 25/18 A3025 RMK AO2 T02500176
KTOC 221755Z AUTO 12005KT 10SM BKN030 BKN036 OVC047 25/18 A3026 RMK AO2 T02450176 10248 20140
KTOC 221735Z AUTO 09004KT 10SM SCT030 SCT036 OVC055 24/17 A3027 RMK AO2 T02430174
KTOC 221715Z AUTO 09006KT 10SM SCT038 OVC055 24/18 A3027 RMK AO2 T02440175
KTOC 221655Z AUTO 08005KT 10SM BKN055 24/18 A3028 RMK AO2 T02400176
KTOC 221635Z AUTO 07005KT 10SM SCT033 SCT041 BKN047 24/18 A3030 RMK AO2 T02400176
KTOC 221615Z AUTO 09003KT 10SM SCT031 SCT038 OVC060 23/17 A3031 RMK AO2 T02300174
KTOC 221555Z AUTO 10005KT 10SM SCT038 BKN060 23/17 A3032 RMK AO2 T02300172
KTOC 221535Z AUTO 06004KT 10SM SCT036 SCT047 BKN050 22/17 A3031 RMK AO2 T02210168
KTOC 221515Z AUTO 06004KT 10SM BKN038 OVC050 21/16 A3032 RMK AO2 T02090162
KTOC 221455Z AUTO 06003KT 10SM BKN040 BKN045 OVC055 21/16 A3033 RMK AO2 T02060156
KTOC 221435Z AUTO 06005KT 10SM SCT014 BKN042 BKN050 20/15 A3033 RMK AO2 T02030152
KTOC 221415Z AUTO 07005KT 10SM SCT014 SCT039 SCT050 21/15 A3033 RMK AO2 T02070151
KTOC 221355Z AUTO 06005KT 10SM SCT041 BKN050 20/15 A3034 RMK AO2 T02020150
KTOC 221335Z AUTO 00000KT 10SM SCT043 BKN050 18/14 A3034 RMK AO2 T01790144
KTOC 221315Z AUTO 36003KT 10SM SCT045 BKN050 17/14 A3034 RMK AO2 T01720140
KTOC 221255Z AUTO 36003KT 10SM BKN050 16/14 A3033 RMK AO2 T01600136
KTOC 221235Z AUTO 34003KT 10SM BKN048 15/13 A3033 RMK AO2 T01500131
KTOC 221215Z AUTO 36004KT 10SM SCT046 14/13 A3032 RMK AO2 T01420126
KTOC 221155Z AUTO 01003KT 10SM SCT048 14/13 A3030 RMK AO2 T01400125 10147 20135
KTOC 221135Z AUTO 36003KT 10SM SCT048 14/13 A3031 RMK AO2 T01380127
KTOC 221115Z AUTO 00000KT 10SM SCT048 14/12 A3031 RMK AO2 T01380124
KTOC 221055Z AUTO 35004KT 10SM CLR 14/13 A3030 RMK AO2 T01420125
KTOC 221035Z AUTO 00000KT 10SM SCT032 SCT040 14/13 A3029 RMK AO2 T01410125
KTOC 221015Z AUTO 35003KT 10SM SCT032 SCT040 14/13 A3029 RMK AO2 T01420125
KTOC 220955Z AUTO 01003KT 10SM CLR 14/13 A3029 RMK AO2 T01410125
KTOC 220935Z AUTO 00000KT 10SM SCT040 SCT050 14/12 A3030 RMK AO2 T01400124
KTOC 220915Z AUTO 00000KT 10SM SCT028 SCT036 BKN050 14/13 A3029 RMK AO2 T01410125
KTOC 220855Z AUTO 01003KT 10SM SCT032 SCT039 BKN047 14/13 A3029 RMK AO2 T01400125
KTOC 220835Z AUTO 01003KT 10SM SCT032 14/13 A3029 RMK AO2 T01380125
KTOC 220815Z AUTO 00000KT 10SM CLR 14/13 A3029 RMK AO2 T01400125
KTOC 220755Z AUTO 36003KT 10SM CLR 14/13 A3030 RMK AO2 T01370125
KTOC 220735Z AUTO 01003KT 10SM CLR 14/13 A3030 RMK AO2 T01370125
KTOC 220715Z AUTO 00000KT 10SM CLR 14/13 A3030 RMK AO2 T01400126
KTOC 220655Z AUTO 00000KT 10SM CLR 14/13 A3031 RMK AO2 T01400129
KTOC 220635Z AUTO 00000KT 10SM CLR 14/13 A3031 RMK AO2 T01410127
KTOC 220615Z AUTO 36003KT 10SM CLR 15/13 A3031 RMK AO2 T01460130
KTOC 220555Z AUTO 35004KT 10SM CLR 15/13 A3031 RMK AO2 T01460131 10181 20141 402610107
KTOC 220535Z AUTO 00000KT 10SM CLR 15/14 A3031 RMK AO2 T01460135
KTOC 220515Z AUTO 00000KT 10SM CLR 14/13 A3031 RMK AO2 T01430132
KTOC 220455Z AUTO 00000KT 10SM CLR 15/13 A3032 RMK AO2 T01460133
KTOC 220435Z AUTO 00000KT 10SM CLR 15/14 A3032 RMK AO2 T01540136
KTOC 220415Z AUTO 00000KT 10SM CLR 16/14 A3032 RMK AO2 T01550140
KTOC 220355Z AUTO 35003KT 10SM CLR 16/14 A3032 RMK AO2 T01580140
KTOC 220335Z AUTO 00000KT 10SM CLR 16/14 A3032 RMK AO2 T01580142
KTOC 220315Z AUTO 01003KT 10SM CLR 16/14 A3032 RMK AO2 T01590142
KTOC 220255Z AUTO 34003KT 10SM CLR 16/14 A3032 RMK AO2 T01570142
KTOC 220235Z AUTO 00000KT 10SM CLR 16/15 A3032 RMK AO2 T01610145
KTOC 220215Z AUTO 35004KT 10SM CLR 16/15 A3032 RMK AO2 T01620148
KTOC 220155Z AUTO 00000KT 10SM CLR 16/15 A3031 RMK AO2 T01620150
KTOC 220135Z AUTO 36003KT 10SM CLR 16/15 A3031 RMK AO2 T01620151
KTOC 220115Z AUTO 34003KT 10SM CLR 16/15 A3031 RMK AO2 T01640151
KTOC 220055Z AUTO 00000KT 10SM CLR 17/15 A3031 RMK AO2 T01670152
KTOC 220035Z AUTO 00000KT 10SM CLR 17/15 A3031 RMK AO2 T01730154
KTOC 220015Z AUTO 00000KT 10SM CLR 18/16 A3031 RMK AO2 T01750155
KTOC 212355Z AUTO 00000KT 10SM CLR 18/16 A3031 RMK AO2 T01830156 10261 20183
KTOC 212335Z AUTO 00000KT 10SM CLR 19/16 A3031 RMK AO2 T01900158
KTOC 212315Z AUTO 00000KT 10SM CLR 20/16 A3030 RMK AO2 T02000156
KTOC 212255Z AUTO 00000KT 10SM CLR 21/15 A3030 RMK AO2 T02100153
KTOC 212235Z AUTO 00000KT 10SM CLR 22/15 A3030 RMK AO2 T02210146
KTOC 212215Z AUTO 00000KT 10SM CLR 24/14 A3030 RMK AO2 T02350140
KTOC 212155Z AUTO 00000KT 10SM CLR 24/15 A3030 RMK AO2 T02360145
KTOC 212135Z AUTO 00000KT 10SM CLR 24/14 A3029 RMK AO2 T02370138
KTOC 212115Z AUTO 00000KT 10SM CLR 24/13 A3029 RMK AO2 T02420128
KTOC 212055Z AUTO 00000KT 10SM CLR 25/12 A3029 RMK AO2 T02460124
KTOC 212035Z AUTO 12005KT 10SM CLR 25/12 A3028 RMK AO2 T02510116
KTOC 212015Z AUTO 13003KT 10SM CLR 25/11 A3028 RMK AO2 T02510108
KTOC 211955Z AUTO 10004KT 10SM CLR 25/11 A3028 RMK AO2 T02540114
KTOC 211935Z AUTO 00000KT 10SM CLR 25/12 A3028 RMK AO2 T02540120
KTOC 211915Z AUTO 12003KT 10SM CLR 26/12 A3028 RMK AO2 T02590118
KTOC 211855Z AUTO 00000KT 10SM CLR 26/11 A3029 RMK AO2 T02600113
KTOC 211835Z AUTO 00000KT 10SM CLR 26/11 A3029 RMK AO2 T02570113
KTOC 211815Z AUTO 10004KT 10SM CLR 26/11 A3029 RMK AO2 T02600114
KTOC 211755Z AUTO 12004KT 10SM CLR 26/12 A3030 RMK AO2 T02580116 10260 20120
KTOC 211735Z AUTO 15003KT 10SM CLR 26/11 A3031 RMK AO2 T02560114
KTOC 211715Z AUTO 07003KT 10SM CLR 25/12 A3032 RMK AO2 T02500122
KTOC 211655Z AUTO 07005KT 10SM CLR 24/12 A3033 RMK AO2 T02420122
KTOC 211635Z AUTO 08004KT 10SM CLR 23/13 A3033 RMK AO2 T02290125
KTOC 211615Z AUTO 00000KT 10SM CLR 23/13 A3034 RMK AO2 T02290128
KTOC 211555Z AUTO 00000KT 10SM CLR 22/12 A3034 RMK AO2 T02200121
KTOC 211535Z AUTO 06003KT 10SM CLR 22/12 A3034 RMK AO2 T02180119
KTOC 211515Z AUTO 07003KT 10SM CLR 22/12 A3034 RMK AO2 T02170123
KTOC 211455Z AUTO 07003KT 10SM CLR 21/12 A3034 RMK AO2 T02110123
KTOC 211435Z AUTO 03003KT 10SM CLR 20/12 A3034 RMK AO2 T01960119
KTOC 211415Z AUTO 00000KT 10SM CLR 18/12 A3034 RMK AO2 T01820122
KTOC 211355Z AUTO 00000KT 10SM CLR 17/12 A3034 RMK AO2 T01710117
KTOC 211335Z AUTO 00000KT 10SM CLR 16/12 A3033 RMK AO2 T01600115
KTOC 211315Z AUTO 02003KT 10SM CLR 15/11 A3033 RMK AO2 T01490107
KTOC 211255Z AUTO 36004KT 10SM CLR 14/10 A3033 RMK AO2 T01380103
KTOC 211235Z AUTO 35004KT 10SM CLR 13/10 A3032 RMK AO2 T01310102
KTOC 211215Z AUTO 36003KT 10SM CLR 12/10 A3031 RMK AO2 T01200100
KTOC 211155Z AUTO 35004KT 10SM CLR 12/10 A3030 RMK AO2 T01180100 10132 20107
KTOC 211135Z AUTO 00000KT 10SM CLR 11/09 A3030 RMK AO2 T01080091
KTOC 211115Z AUTO 00000KT 10SM CLR 12/10 A3029 RMK AO2 T01150095
KTOC 211055Z AUTO 35004KT 10SM CLR 12/10 A3028 RMK AO2 T01170099
KTOC 211035Z AUTO 35003KT 10SM CLR 12/10 A3028 RMK AO2 T01200098
KTOC 211015Z AUTO 35003KT 10SM CLR 12/10 A3028 RMK AO2 T01170099
KTOC 210955Z AUTO 00000KT 10SM CLR 12/10 A3027 RMK AO2 T01220098
KTOC 210935Z AUTO 36003KT 10SM CLR 13/10 A3027 RMK AO2 T01280100
KTOC 210915Z AUTO 35005KT 10SM CLR 13/10 A3026 RMK AO2 T01260100